sensor_id;sensor_type;location;lat;lon;timestamp;temperature;humidity
12632;DHT22;6381;45.748;12.106;2024-02-23T00:01:12;9.50;99.90
12632;DHT22;6381;45.748;12.106;2024-02-23T00:03:42;9.50;99.90
12632;DHT22;6381;45.748;12.106;2024-02-23T00:06:13;9.50;99.90
12632;DHT22;6381;45.748;12.106;2024-02-23T00:08:43;9.60;99.90
12632;DHT22;6381;45.748;12.106;2024-02-23T00:11:13;9.50;99.90
12632;DHT22;6381;45.748;12.106;2024-02-23T00:13:43;9.50;99.90
12632;DHT22;6381;45.748;12.106;2024-02-23T00:16:13;9.50;99.90
12632;DHT22;6381;45.748;12.106;2024-02-23T00:18:42;9.60;99.90
12632;DHT22;6381;45.748;12.106;2024-02-23T00:21:14;9.60;99.90
12632;DHT22;6381;45.748;12.106;2024-02-23T00:23:44;9.60;99.90
12632;DHT22;6381;45.748;12.106;2024-02-23T00:26:14;9.70;99.90
12632;DHT22;6381;45.748;12.106;2024-02-23T00:28:43;9.60;99.90
12632;DHT22;6381;45.748;12.106;2024-02-23T00:31:13;9.60;99.90
12632;DHT22;6381;45.748;12.106;2024-02-23T00:33:43;9.60;99.90
12632;DHT22;6381;45.748;12.106;2024-02-23T00:36:14;9.60;99.90
12632;DHT22;6381;45.748;12.106;2024-02-23T00:38:45;9.70;99.90
12632;DHT22;6381;45.748;12.106;2024-02-23T00:41:15;9.70;99.90
12632;DHT22;6381;45.748;12.106;2024-02-23T00:43:45;9.60;99.90
12632;DHT22;6381;45.748;12.106;2024-02-23T00:46:15;9.40;99.90
12632;DHT22;6381;45.748;12.106;2024-02-23T00:48:45;9.50;99.90
12632;DHT22;6381;45.748;12.106;2024-02-23T00:51:17;9.60;99.90
12632;DHT22;6381;45.748;12.106;2024-02-23T00:53:46;9.60;99.90
12632;DHT22;6381;45.748;12.106;2024-02-23T00:56:16;9.60;99.90
12632;DHT22;6381;45.748;12.106;2024-02-23T00:58:48;9.50;99.90
12632;DHT22;6381;45.748;12.106;2024-02-23T01:01:18;9.60;99.90
12632;DHT22;6381;45.748;12.106;2024-02-23T01:03:48;9.60;99.90
12632;DHT22;6381;45.748;12.106;2024-02-23T01:06:19;9.60;99.90
12632;DHT22;6381;45.748;12.106;2024-02-23T01:08:49;9.50;99.90
12632;DHT22;6381;45.748;12.106;2024-02-23T01:11:19;9.50;99.90
12632;DHT22;6381;45.748;12.106;2024-02-23T01:13:49;9.60;99.90
12632;DHT22;6381;45.748;12.106;2024-02-23T01:16:18;9.40;99.90
12632;DHT22;6381;45.748;12.106;2024-02-23T01:18:49;9.60;99.90
12632;DHT22;6381;45.748;12.106;2024-02-23T01:21:20;9.50;99.90
12632;DHT22;6381;45.748;12.106;2024-02-23T01:23:49;9.50;99.90
12632;DHT22;6381;45.748;12.106;2024-02-23T01:26:19;9.50;99.90
12632;DHT22;6381;45.748;12.106;2024-02-23T01:28:49;9.50;99.90
12632;DHT22;6381;45.748;12.106;2024-02-23T01:31:20;9.30;99.90
12632;DHT22;6381;45.748;12.106;2024-02-23T01:33:49;9.30;99.90
12632;DHT22;6381;45.748;12.106;2024-02-23T01:36:21;9.20;99.90
12632;DHT22;6381;45.748;12.106;2024-02-23T01:38:51;9.30;99.90
12632;DHT22;6381;45.748;12.106;2024-02-23T01:41:21;9.30;99.90
12632;DHT22;6381;45.748;12.106;2024-02-23T01:43:51;9.30;99.90
12632;DHT22;6381;45.748;12.106;2024-02-23T01:46:21;9.30;99.90
12632;DHT22;6381;45.748;12.106;2024-02-23T01:48:51;9.30;99.90
12632;DHT22;6381;45.748;12.106;2024-02-23T01:51:23;9.30;99.90
12632;DHT22;6381;45.748;12.106;2024-02-23T01:53:52;9.30;99.90
12632;DHT22;6381;45.748;12.106;2024-02-23T01:56:23;9.30;99.90
12632;DHT22;6381;45.748;12.106;2024-02-23T01:58:53;9.30;99.90
12632;DHT22;6381;45.748;12.106;2024-02-23T02:01:24;8.80;99.90
12632;DHT22;6381;45.748;12.106;2024-02-23T02:03:54;9.30;99.90
12632;DHT22;6381;45.748;12.106;2024-02-23T02:06:26;9.30;99.90
12632;DHT22;6381;45.748;12.106;2024-02-23T02:08:56;9.30;99.90
12632;DHT22;6381;45.748;12.106;2024-02-23T02:11:25;9.30;99.90
12632;DHT22;6381;45.748;12.106;2024-02-23T02:13:55;9.30;99.90
12632;DHT22;6381;45.748;12.106;2024-02-23T02:16:25;9.30;99.90
12632;DHT22;6381;45.748;12.106;2024-02-23T02:18:55;9.40;99.90
12632;DHT22;6381;45.748;12.106;2024-02-23T02:21:27;9.60;99.90
12632;DHT22;6381;45.748;12.106;2024-02-23T02:23:57;9.50;99.90
12632;DHT22;6381;45.748;12.106;2024-02-23T02:26:28;9.60;99.90
12632;DHT22;6381;45.748;12.106;2024-02-23T02:28:57;9.40;99.90
12632;DHT22;6381;45.748;12.106;2024-02-23T02:31:27;9.30;99.90
12632;DHT22;6381;45.748;12.106;2024-02-23T02:33:57;9.50;99.90
12632;DHT22;6381;45.748;12.106;2024-02-23T02:36:29;9.50;99.90
12632;DHT22;6381;45.748;12.106;2024-02-23T02:38:58;9.40;99.90
12632;DHT22;6381;45.748;12.106;2024-02-23T02:41:29;9.60;99.90
12632;DHT22;6381;45.748;12.106;2024-02-23T02:43:59;9.50;99.90
12632;DHT22;6381;45.748;12.106;2024-02-23T02:46:29;9.40;99.90
12632;DHT22;6381;45.748;12.106;2024-02-23T02:48:58;9.50;99.90
12632;DHT22;6381;45.748;12.106;2024-02-23T02:51:30;9.40;99.90
12632;DHT22;6381;45.748;12.106;2024-02-23T02:53:59;9.60;99.90
12632;DHT22;6381;45.748;12.106;2024-02-23T02:56:29;9.50;99.90
12632;DHT22;6381;45.748;12.106;2024-02-23T02:58:59;9.60;99.90
12632;DHT22;6381;45.748;12.106;2024-02-23T03:01:29;9.70;99.90
12632;DHT22;6381;45.748;12.106;2024-02-23T03:03:59;9.70;99.90
12632;DHT22;6381;45.748;12.106;2024-02-23T03:06:30;9.50;99.90
12632;DHT22;6381;45.748;12.106;2024-02-23T03:09:01;9.60;99.90
12632;DHT22;6381;45.748;12.106;2024-02-23T03:11:31;9.60;99.90
12632;DHT22;6381;45.748;12.106;2024-02-23T03:14:01;9.60;99.90
12632;DHT22;6381;45.748;12.106;2024-02-23T03:16:31;9.50;99.90
12632;DHT22;6381;45.748;12.106;2024-02-23T03:19:02;9.60;99.90
12632;DHT22;6381;45.748;12.106;2024-02-23T03:21:33;9.40;99.90
12632;DHT22;6381;45.748;12.106;2024-02-23T03:24:07;9.50;99.90
12632;DHT22;6381;45.748;12.106;2024-02-23T03:26:36;9.50;99.90
12632;DHT22;6381;45.748;12.106;2024-02-23T03:29:06;9.50;99.90
12632;DHT22;6381;45.748;12.106;2024-02-23T03:31:36;9.60;99.90
12632;DHT22;6381;45.748;12.106;2024-02-23T03:34:07;9.50;99.90
12632;DHT22;6381;45.748;12.106;2024-02-23T03:36:38;9.60;99.90
12632;DHT22;6381;45.748;12.106;2024-02-23T03:39:08;9.50;99.90
12632;DHT22;6381;45.748;12.106;2024-02-23T03:41:38;9.60;99.90
12632;DHT22;6381;45.748;12.106;2024-02-23T03:44:08;9.60;99.90
12632;DHT22;6381;45.748;12.106;2024-02-23T03:46:38;9.60;99.90
12632;DHT22;6381;45.748;12.106;2024-02-23T03:49:07;9.50;99.90
12632;DHT22;6381;45.748;12.106;2024-02-23T03:51:39;9.80;99.90
12632;DHT22;6381;45.748;12.106;2024-02-23T03:54:08;9.70;99.90
12632;DHT22;6381;45.748;12.106;2024-02-23T03:56:39;9.60;99.90
12632;DHT22;6381;45.748;12.106;2024-02-23T03:59:10;9.60;99.90
12632;DHT22;6381;45.748;12.106;2024-02-23T04:01:39;9.60;99.90
12632;DHT22;6381;45.748;12.106;2024-02-23T04:04:09;9.80;99.90
12632;DHT22;6381;45.748;12.106;2024-02-23T04:06:41;9.60;99.90
12632;DHT22;6381;45.748;12.106;2024-02-23T04:09:11;9.60;99.90
12632;DHT22;6381;45.748;12.106;2024-02-23T04:11:41;9.60;99.90
12632;DHT22;6381;45.748;12.106;2024-02-23T04:14:11;9.60;99.90
12632;DHT22;6381;45.748;12.106;2024-02-23T04:16:41;9.50;99.90
12632;DHT22;6381;45.748;12.106;2024-02-23T04:19:11;9.60;99.90
12632;DHT22;6381;45.748;12.106;2024-02-23T04:21:42;9.80;99.90
12632;DHT22;6381;45.748;12.106;2024-02-23T04:24:12;9.70;99.90
12632;DHT22;6381;45.748;12.106;2024-02-23T04:26:41;9.60;99.90
12632;DHT22;6381;45.748;12.106;2024-02-23T04:29:11;9.60;99.90
12632;DHT22;6381;45.748;12.106;2024-02-23T04:31:42;9.60;99.90
12632;DHT22;6381;45.748;12.106;2024-02-23T04:34:12;9.70;99.90
12632;DHT22;6381;45.748;12.106;2024-02-23T04:36:43;9.80;99.90
12632;DHT22;6381;45.748;12.106;2024-02-23T04:39:13;9.70;99.90
12632;DHT22;6381;45.748;12.106;2024-02-23T04:41:44;9.70;99.90
12632;DHT22;6381;45.748;12.106;2024-02-23T04:44:14;9.70;99.90
12632;DHT22;6381;45.748;12.106;2024-02-23T04:46:43;9.60;99.90
12632;DHT22;6381;45.748;12.106;2024-02-23T04:49:13;9.80;99.90
12632;DHT22;6381;45.748;12.106;2024-02-23T04:51:45;9.70;99.90
12632;DHT22;6381;45.748;12.106;2024-02-23T04:54:15;9.80;99.90
12632;DHT22;6381;45.748;12.106;2024-02-23T04:56:45;9.70;99.90
12632;DHT22;6381;45.748;12.106;2024-02-23T04:59:15;9.60;99.90
12632;DHT22;6381;45.748;12.106;2024-02-23T05:01:45;9.80;99.90
12632;DHT22;6381;45.748;12.106;2024-02-23T05:04:15;9.70;99.90
12632;DHT22;6381;45.748;12.106;2024-02-23T05:06:46;9.70;99.90
12632;DHT22;6381;45.748;12.106;2024-02-23T05:09:16;9.80;99.90
12632;DHT22;6381;45.748;12.106;2024-02-23T05:11:46;9.70;99.90
12632;DHT22;6381;45.748;12.106;2024-02-23T05:14:16;9.70;99.90
12632;DHT22;6381;45.748;12.106;2024-02-23T05:16:46;9.70;99.90
12632;DHT22;6381;45.748;12.106;2024-02-23T05:19:16;9.80;99.90
12632;DHT22;6381;45.748;12.106;2024-02-23T05:21:48;9.90;99.90
12632;DHT22;6381;45.748;12.106;2024-02-23T05:24:17;9.90;99.90
12632;DHT22;6381;45.748;12.106;2024-02-23T05:26:48;9.80;99.90
12632;DHT22;6381;45.748;12.106;2024-02-23T05:29:18;9.90;99.90
12632;DHT22;6381;45.748;12.106;2024-02-23T05:31:51;9.90;99.90
12632;DHT22;6381;45.748;12.106;2024-02-23T05:34:21;9.90;99.90
12632;DHT22;6381;45.748;12.106;2024-02-23T05:36:52;9.90;99.90
12632;DHT22;6381;45.748;12.106;2024-02-23T05:39:22;9.90;99.90
12632;DHT22;6381;45.748;12.106;2024-02-23T05:41:52;9.80;99.90
12632;DHT22;6381;45.748;12.106;2024-02-23T05:44:22;9.90;99.90
12632;DHT22;6381;45.748;12.106;2024-02-23T05:46:52;9.90;99.90
12632;DHT22;6381;45.748;12.106;2024-02-23T05:49:22;9.80;99.90
12632;DHT22;6381;45.748;12.106;2024-02-23T05:51:54;9.90;99.90
12632;DHT22;6381;45.748;12.106;2024-02-23T05:54:24;9.80;99.90
12632;DHT22;6381;45.748;12.106;2024-02-23T05:56:54;9.70;99.90
12632;DHT22;6381;45.748;12.106;2024-02-23T05:59:24;9.90;99.90
12632;DHT22;6381;45.748;12.106;2024-02-23T06:01:56;9.80;99.90
12632;DHT22;6381;45.748;12.106;2024-02-23T06:04:26;9.90;99.90
12632;DHT22;6381;45.748;12.106;2024-02-23T06:06:58;10.00;99.90
12632;DHT22;6381;45.748;12.106;2024-02-23T06:09:28;10.00;99.90
12632;DHT22;6381;45.748;12.106;2024-02-23T06:11:58;9.90;99.90
12632;DHT22;6381;45.748;12.106;2024-02-23T06:14:28;10.00;99.90
12632;DHT22;6381;45.748;12.106;2024-02-23T06:16:59;9.80;99.90
12632;DHT22;6381;45.748;12.106;2024-02-23T06:19:29;9.80;99.90
12632;DHT22;6381;45.748;12.106;2024-02-23T06:22:00;10.00;99.90
12632;DHT22;6381;45.748;12.106;2024-02-23T06:24:30;10.00;99.90
12632;DHT22;6381;45.748;12.106;2024-02-23T06:27:00;9.80;99.90
12632;DHT22;6381;45.748;12.106;2024-02-23T06:29:31;9.80;99.90
12632;DHT22;6381;45.748;12.106;2024-02-23T06:32:01;10.00;99.90
12632;DHT22;6381;45.748;12.106;2024-02-23T06:34:31;9.80;99.90
12632;DHT22;6381;45.748;12.106;2024-02-23T06:37:03;9.90;99.90
12632;DHT22;6381;45.748;12.106;2024-02-23T06:39:34;10.00;99.90
12632;DHT22;6381;45.748;12.106;2024-02-23T06:42:05;10.00;99.90
12632;DHT22;6381;45.748;12.106;2024-02-23T06:44:35;10.00;99.90
12632;DHT22;6381;45.748;12.106;2024-02-23T06:47:06;10.00;99.90
12632;DHT22;6381;45.748;12.106;2024-02-23T06:49:36;9.90;99.90
12632;DHT22;6381;45.748;12.106;2024-02-23T06:52:08;9.90;99.90
12632;DHT22;6381;45.748;12.106;2024-02-23T06:54:38;9.80;99.90
12632;DHT22;6381;45.748;12.106;2024-02-23T06:57:08;10.00;99.90
12632;DHT22;6381;45.748;12.106;2024-02-23T06:59:38;9.80;99.90
12632;DHT22;6381;45.748;12.106;2024-02-23T07:02:08;9.80;99.90
12632;DHT22;6381;45.748;12.106;2024-02-23T07:04:39;9.90;99.90
12632;DHT22;6381;45.748;12.106;2024-02-23T07:07:10;9.80;99.90
12632;DHT22;6381;45.748;12.106;2024-02-23T07:09:40;10.00;99.90
12632;DHT22;6381;45.748;12.106;2024-02-23T07:12:10;10.00;99.90
12632;DHT22;6381;45.748;12.106;2024-02-23T07:14:42;10.00;99.90
12632;DHT22;6381;45.748;12.106;2024-02-23T07:17:12;10.00;99.90
12632;DHT22;6381;45.748;12.106;2024-02-23T07:19:42;9.90;99.90
12632;DHT22;6381;45.748;12.106;2024-02-23T07:22:14;9.90;99.90
12632;DHT22;6381;45.748;12.106;2024-02-23T07:24:44;10.00;99.90
12632;DHT22;6381;45.748;12.106;2024-02-23T07:27:14;9.80;99.90
12632;DHT22;6381;45.748;12.106;2024-02-23T07:29:43;9.90;99.90
12632;DHT22;6381;45.748;12.106;2024-02-23T07:32:13;9.90;99.90
12632;DHT22;6381;45.748;12.106;2024-02-23T07:34:44;9.80;99.90
12632;DHT22;6381;45.748;12.106;2024-02-23T07:37:15;9.90;99.90
12632;DHT22;6381;45.748;12.106;2024-02-23T07:39:45;9.80;99.90
12632;DHT22;6381;45.748;12.106;2024-02-23T07:42:17;10.00;99.90
12632;DHT22;6381;45.748;12.106;2024-02-23T07:44:47;9.90;99.90
12632;DHT22;6381;45.748;12.106;2024-02-23T07:47:17;10.10;99.90
12632;DHT22;6381;45.748;12.106;2024-02-23T07:49:47;10.00;99.90
12632;DHT22;6381;45.748;12.106;2024-02-23T07:52:18;10.00;99.90
12632;DHT22;6381;45.748;12.106;2024-02-23T07:54:52;10.10;99.90
12632;DHT22;6381;45.748;12.106;2024-02-23T07:57:22;10.00;99.90
12632;DHT22;6381;45.748;12.106;2024-02-23T07:59:51;10.00;99.90
12632;DHT22;6381;45.748;12.106;2024-02-23T08:02:21;10.10;99.90
12632;DHT22;6381;45.748;12.106;2024-02-23T08:04:51;10.00;99.90
12632;DHT22;6381;45.748;12.106;2024-02-23T08:07:24;10.10;99.90
12632;DHT22;6381;45.748;12.106;2024-02-23T08:09:54;10.10;99.90
12632;DHT22;6381;45.748;12.106;2024-02-23T08:12:24;10.20;99.90
12632;DHT22;6381;45.748;12.106;2024-02-23T08:14:54;10.20;99.90
12632;DHT22;6381;45.748;12.106;2024-02-23T08:17:24;10.20;99.90
12632;DHT22;6381;45.748;12.106;2024-02-23T08:19:54;10.30;99.90
12632;DHT22;6381;45.748;12.106;2024-02-23T08:22:26;10.10;99.90
12632;DHT22;6381;45.748;12.106;2024-02-23T08:24:56;10.20;99.90
12632;DHT22;6381;45.748;12.106;2024-02-23T08:27:26;10.10;99.90
12632;DHT22;6381;45.748;12.106;2024-02-23T08:29:56;10.30;99.90
12632;DHT22;6381;45.748;12.106;2024-02-23T08:32:25;10.30;99.90
12632;DHT22;6381;45.748;12.106;2024-02-23T08:34:55;10.30;99.90
12632;DHT22;6381;45.748;12.106;2024-02-23T08:37:29;10.30;99.90
12632;DHT22;6381;45.748;12.106;2024-02-23T08:39:59;10.30;99.90
12632;DHT22;6381;45.748;12.106;2024-02-23T08:42:32;10.30;99.90
12632;DHT22;6381;45.748;12.106;2024-02-23T08:45:03;10.30;99.90
12632;DHT22;6381;45.748;12.106;2024-02-23T08:47:32;10.30;99.90
12632;DHT22;6381;45.748;12.106;2024-02-23T08:50:04;10.30;99.90
12632;DHT22;6381;45.748;12.106;2024-02-23T08:52:36;10.10;99.90
12632;DHT22;6381;45.748;12.106;2024-02-23T08:55:06;10.10;99.90
12632;DHT22;6381;45.748;12.106;2024-02-23T08:57:36;10.20;99.90
12632;DHT22;6381;45.748;12.106;2024-02-23T09:00:07;10.10;99.90
12632;DHT22;6381;45.748;12.106;2024-02-23T09:02:37;10.30;99.90
12632;DHT22;6381;45.748;12.106;2024-02-23T09:05:07;10.10;99.90
12632;DHT22;6381;45.748;12.106;2024-02-23T09:07:39;10.30;99.90
12632;DHT22;6381;45.748;12.106;2024-02-23T09:10:09;10.20;99.90
12632;DHT22;6381;45.748;12.106;2024-02-23T09:12:40;10.30;99.90
12632;DHT22;6381;45.748;12.106;2024-02-23T09:15:10;10.30;99.90
12632;DHT22;6381;45.748;12.106;2024-02-23T09:17:41;10.30;99.90
12632;DHT22;6381;45.748;12.106;2024-02-23T09:20:11;10.30;99.90
12632;DHT22;6381;45.748;12.106;2024-02-23T09:22:43;10.30;99.90
12632;DHT22;6381;45.748;12.106;2024-02-23T09:25:12;10.20;99.90
12632;DHT22;6381;45.748;12.106;2024-02-23T09:27:42;10.20;99.90
12632;DHT22;6381;45.748;12.106;2024-02-23T09:30:13;10.10;99.90
12632;DHT22;6381;45.748;12.106;2024-02-23T09:32:43;10.10;99.90
12632;DHT22;6381;45.748;12.106;2024-02-23T09:35:14;10.30;99.90
12632;DHT22;6381;45.748;12.106;2024-02-23T09:37:45;10.20;99.90
12632;DHT22;6381;45.748;12.106;2024-02-23T09:40:16;10.40;99.90
12632;DHT22;6381;45.748;12.106;2024-02-23T09:42:52;10.40;99.90
12632;DHT22;6381;45.748;12.106;2024-02-23T09:45:25;10.30;99.90
12632;DHT22;6381;45.748;12.106;2024-02-23T09:47:57;10.30;99.90
12632;DHT22;6381;45.748;12.106;2024-02-23T09:50:28;10.30;99.90
12632;DHT22;6381;45.748;12.106;2024-02-23T09:53:02;10.20;99.90
12632;DHT22;6381;45.748;12.106;2024-02-23T09:55:36;10.30;99.90
12632;DHT22;6381;45.748;12.106;2024-02-23T09:58:07;10.30;99.90
12632;DHT22;6381;45.748;12.106;2024-02-23T10:00:38;10.40;99.90
12632;DHT22;6381;45.748;12.106;2024-02-23T10:03:08;10.40;99.90
12632;DHT22;6381;45.748;12.106;2024-02-23T10:05:38;10.20;99.90
12632;DHT22;6381;45.748;12.106;2024-02-23T10:08:11;10.20;99.90
12632;DHT22;6381;45.748;12.106;2024-02-23T10:10:41;10.30;99.90
12632;DHT22;6381;45.748;12.106;2024-02-23T10:13:11;10.20;99.90
12632;DHT22;6381;45.748;12.106;2024-02-23T10:15:41;10.40;99.90
12632;DHT22;6381;45.748;12.106;2024-02-23T10:18:30;10.40;99.90
12632;DHT22;6381;45.748;12.106;2024-02-23T10:21:00;10.30;99.90
12632;DHT22;6381;45.748;12.106;2024-02-23T10:23:31;10.40;99.90
12632;DHT22;6381;45.748;12.106;2024-02-23T10:26:06;10.20;99.90
12632;DHT22;6381;45.748;12.106;2024-02-23T10:28:37;10.40;99.90
12632;DHT22;6381;45.748;12.106;2024-02-23T10:31:07;10.20;99.90
12632;DHT22;6381;45.748;12.106;2024-02-23T10:33:40;10.30;99.90
12632;DHT22;6381;45.748;12.106;2024-02-23T10:36:12;10.30;99.90
12632;DHT22;6381;45.748;12.106;2024-02-23T10:38:47;10.40;99.90
12632;DHT22;6381;45.748;12.106;2024-02-23T10:41:18;10.40;99.90
12632;DHT22;6381;45.748;12.106;2024-02-23T10:43:49;10.50;99.90
12632;DHT22;6381;45.748;12.106;2024-02-23T10:46:21;10.50;99.90
12632;DHT22;6381;45.748;12.106;2024-02-23T10:48:53;10.40;99.90
12632;DHT22;6381;45.748;12.106;2024-02-23T10:51:25;10.50;99.90
12632;DHT22;6381;45.748;12.106;2024-02-23T10:53:57;10.40;99.90
12632;DHT22;6381;45.748;12.106;2024-02-23T10:56:27;10.40;99.90
12632;DHT22;6381;45.748;12.106;2024-02-23T10:58:57;10.50;99.90
12632;DHT22;6381;45.748;12.106;2024-02-23T11:01:27;10.40;99.90
12632;DHT22;6381;45.748;12.106;2024-02-23T11:03:57;10.40;99.90
12632;DHT22;6381;45.748;12.106;2024-02-23T11:06:28;10.50;99.90
12632;DHT22;6381;45.748;12.106;2024-02-23T11:09:07;10.50;99.90
12632;DHT22;6381;45.748;12.106;2024-02-23T11:11:37;10.40;99.90
12632;DHT22;6381;45.748;12.106;2024-02-23T11:14:08;10.40;99.90
12632;DHT22;6381;45.748;12.106;2024-02-23T11:16:39;10.50;99.90
12632;DHT22;6381;45.748;12.106;2024-02-23T11:19:10;10.60;99.90
12632;DHT22;6381;45.748;12.106;2024-02-23T11:21:42;10.50;99.90
12632;DHT22;6381;45.748;12.106;2024-02-23T11:24:16;10.60;99.90
12632;DHT22;6381;45.748;12.106;2024-02-23T11:26:48;10.70;99.90
12632;DHT22;6381;45.748;12.106;2024-02-23T11:29:19;10.50;99.90
12632;DHT22;6381;45.748;12.106;2024-02-23T11:31:50;10.80;99.90
12632;DHT22;6381;45.748;12.106;2024-02-23T11:34:24;10.80;99.90
12632;DHT22;6381;45.748;12.106;2024-02-23T11:36:57;10.80;99.90
12632;DHT22;6381;45.748;12.106;2024-02-23T11:39:30;10.80;99.90
12632;DHT22;6381;45.748;12.106;2024-02-23T11:42:01;10.60;99.90
12632;DHT22;6381;45.748;12.106;2024-02-23T11:44:31;10.70;99.90
12632;DHT22;6381;45.748;12.106;2024-02-23T11:47:02;10.80;99.90
12632;DHT22;6381;45.748;12.106;2024-02-23T11:49:32;10.90;99.90
12632;DHT22;6381;45.748;12.106;2024-02-23T11:52:03;10.90;99.90
12632;DHT22;6381;45.748;12.106;2024-02-23T11:54:35;10.80;99.90
12632;DHT22;6381;45.748;12.106;2024-02-23T11:57:05;10.80;99.90
12632;DHT22;6381;45.748;12.106;2024-02-23T11:59:35;11.00;99.90
12632;DHT22;6381;45.748;12.106;2024-02-23T12:02:06;11.00;99.90
12632;DHT22;6381;45.748;12.106;2024-02-23T12:04:36;11.00;99.90
12632;DHT22;6381;45.748;12.106;2024-02-23T12:07:07;11.10;99.90
12632;DHT22;6381;45.748;12.106;2024-02-23T12:09:39;11.00;99.90
12632;DHT22;6381;45.748;12.106;2024-02-23T12:12:10;11.00;99.90
12632;DHT22;6381;45.748;12.106;2024-02-23T12:14:40;11.10;99.90
12632;DHT22;6381;45.748;12.106;2024-02-23T12:17:10;11.20;99.90
12632;DHT22;6381;45.748;12.106;2024-02-23T12:19:40;11.10;99.90
12632;DHT22;6381;45.748;12.106;2024-02-23T12:22:11;10.90;99.90
12632;DHT22;6381;45.748;12.106;2024-02-23T12:24:42;11.10;99.90
12632;DHT22;6381;45.748;12.106;2024-02-23T12:27:17;11.10;99.90
12632;DHT22;6381;45.748;12.106;2024-02-23T12:29:52;11.20;99.90
12632;DHT22;6381;45.748;12.106;2024-02-23T12:32:22;10.90;99.90
12632;DHT22;6381;45.748;12.106;2024-02-23T12:34:52;11.00;99.90
12632;DHT22;6381;45.748;12.106;2024-02-23T12:37:22;10.80;99.90
12632;DHT22;6381;45.748;12.106;2024-02-23T12:39:53;10.90;99.90
12632;DHT22;6381;45.748;12.106;2024-02-23T12:42:24;10.90;99.90
12632;DHT22;6381;45.748;12.106;2024-02-23T12:44:54;10.90;99.90
12632;DHT22;6381;45.748;12.106;2024-02-23T12:47:24;10.80;99.90
12632;DHT22;6381;45.748;12.106;2024-02-23T12:49:54;10.80;99.90
12632;DHT22;6381;45.748;12.106;2024-02-23T12:52:25;10.80;99.90
12632;DHT22;6381;45.748;12.106;2024-02-23T12:54:56;10.80;99.90
12632;DHT22;6381;45.748;12.106;2024-02-23T12:57:26;10.90;99.90
12632;DHT22;6381;45.748;12.106;2024-02-23T12:59:56;10.70;99.90
12632;DHT22;6381;45.748;12.106;2024-02-23T13:02:26;10.70;99.90
12632;DHT22;6381;45.748;12.106;2024-02-23T13:04:55;10.70;99.90
12632;DHT22;6381;45.748;12.106;2024-02-23T13:07:25;10.60;99.90
12632;DHT22;6381;45.748;12.106;2024-02-23T13:09:59;10.60;99.90
12632;DHT22;6381;45.748;12.106;2024-02-23T13:12:30;10.60;99.90
12632;DHT22;6381;45.748;12.106;2024-02-23T13:15:00;10.50;99.90
12632;DHT22;6381;45.748;12.106;2024-02-23T13:17:30;10.70;99.90
12632;DHT22;6381;45.748;12.106;2024-02-23T13:19:59;10.60;99.90
12632;DHT22;6381;45.748;12.106;2024-02-23T13:22:38;10.50;99.90
12632;DHT22;6381;45.748;12.106;2024-02-23T13:25:10;10.60;99.90
12632;DHT22;6381;45.748;12.106;2024-02-23T13:27:40;10.50;99.90
12632;DHT22;6381;45.748;12.106;2024-02-23T13:30:10;10.60;99.90
12632;DHT22;6381;45.748;12.106;2024-02-23T13:32:42;10.40;99.90
12632;DHT22;6381;45.748;12.106;2024-02-23T13:35:12;10.50;99.90
12632;DHT22;6381;45.748;12.106;2024-02-23T13:37:42;10.70;99.90
12632;DHT22;6381;45.748;12.106;2024-02-23T13:40:14;10.40;99.90
12632;DHT22;6381;45.748;12.106;2024-02-23T13:42:44;10.50;99.90
12632;DHT22;6381;45.748;12.106;2024-02-23T13:45:17;10.50;99.90
12632;DHT22;6381;45.748;12.106;2024-02-23T13:47:56;10.50;99.90
12632;DHT22;6381;45.748;12.106;2024-02-23T13:50:27;10.50;99.90
12632;DHT22;6381;45.748;12.106;2024-02-23T13:52:58;10.70;99.90
12632;DHT22;6381;45.748;12.106;2024-02-23T13:55:31;10.70;99.90
12632;DHT22;6381;45.748;12.106;2024-02-23T13:58:01;10.80;99.90
12632;DHT22;6381;45.748;12.106;2024-02-23T14:00:31;10.80;99.90
12632;DHT22;6381;45.748;12.106;2024-02-23T14:03:03;10.70;99.90
12632;DHT22;6381;45.748;12.106;2024-02-23T14:05:33;10.80;99.90
12632;DHT22;6381;45.748;12.106;2024-02-23T14:08:04;10.70;99.90
12632;DHT22;6381;45.748;12.106;2024-02-23T14:10:37;10.60;99.90
12632;DHT22;6381;45.748;12.106;2024-02-23T14:13:08;10.70;99.90
12632;DHT22;6381;45.748;12.106;2024-02-23T14:15:38;10.70;99.90
12632;DHT22;6381;45.748;12.106;2024-02-23T14:18:08;10.70;99.90
12632;DHT22;6381;45.748;12.106;2024-02-23T14:20:38;10.70;99.90
12632;DHT22;6381;45.748;12.106;2024-02-23T14:23:09;10.70;99.90
12632;DHT22;6381;45.748;12.106;2024-02-23T14:25:40;10.70;99.90
12632;DHT22;6381;45.748;12.106;2024-02-23T14:28:10;10.80;99.90
12632;DHT22;6381;45.748;12.106;2024-02-23T14:30:40;10.70;99.90
12632;DHT22;6381;45.748;12.106;2024-02-23T14:33:11;10.70;99.90
12632;DHT22;6381;45.748;12.106;2024-02-23T14:35:41;10.70;99.90
12632;DHT22;6381;45.748;12.106;2024-02-23T14:38:12;10.70;99.90
12632;DHT22;6381;45.748;12.106;2024-02-23T14:40:43;10.70;99.90
12632;DHT22;6381;45.748;12.106;2024-02-23T14:43:13;10.70;99.90
12632;DHT22;6381;45.748;12.106;2024-02-23T14:45:43;10.70;99.90
12632;DHT22;6381;45.748;12.106;2024-02-23T14:48:13;10.80;99.90
12632;DHT22;6381;45.748;12.106;2024-02-23T14:50:44;11.00;99.90
12632;DHT22;6381;45.748;12.106;2024-02-23T14:53:14;10.90;99.90
12632;DHT22;6381;45.748;12.106;2024-02-23T14:55:45;11.00;99.90
12632;DHT22;6381;45.748;12.106;2024-02-23T14:58:15;10.90;99.90
12632;DHT22;6381;45.748;12.106;2024-02-23T15:00:45;11.00;99.90
12632;DHT22;6381;45.748;12.106;2024-02-23T15:03:15;10.90;99.90
12632;DHT22;6381;45.748;12.106;2024-02-23T15:05:45;11.00;99.90
12632;DHT22;6381;45.748;12.106;2024-02-23T15:08:17;11.00;99.90
12632;DHT22;6381;45.748;12.106;2024-02-23T15:10:49;11.00;99.90
12632;DHT22;6381;45.748;12.106;2024-02-23T15:13:20;11.10;99.90
12632;DHT22;6381;45.748;12.106;2024-02-23T15:15:51;11.00;99.90
12632;DHT22;6381;45.748;12.106;2024-02-23T15:18:26;11.10;99.90
12632;DHT22;6381;45.748;12.106;2024-02-23T15:20:56;11.00;99.90
12632;DHT22;6381;45.748;12.106;2024-02-23T15:23:26;11.10;99.90
12632;DHT22;6381;45.748;12.106;2024-02-23T15:25:58;11.10;99.90
12632;DHT22;6381;45.748;12.106;2024-02-23T15:28:38;11.10;99.90
12632;DHT22;6381;45.748;12.106;2024-02-23T15:31:08;11.20;99.90
12632;DHT22;6381;45.748;12.106;2024-02-23T15:33:38;11.20;99.90
12632;DHT22;6381;45.748;12.106;2024-02-23T15:36:08;11.00;99.90
12632;DHT22;6381;45.748;12.106;2024-02-23T15:38:38;11.00;99.90
12632;DHT22;6381;45.748;12.106;2024-02-23T15:41:09;10.90;99.90
12632;DHT22;6381;45.748;12.106;2024-02-23T15:43:40;10.60;99.90
12632;DHT22;6381;45.748;12.106;2024-02-23T15:46:10;10.50;99.90
12632;DHT22;6381;45.748;12.106;2024-02-23T15:48:39;10.50;99.90
12632;DHT22;6381;45.748;12.106;2024-02-23T15:51:10;10.70;99.90
12632;DHT22;6381;45.748;12.106;2024-02-23T15:53:59;10.50;99.90
12632;DHT22;6381;45.748;12.106;2024-02-23T15:56:31;10.20;99.90
12632;DHT22;6381;45.748;12.106;2024-02-23T15:59:02;10.10;99.90